createdAt,value
2022-11-15T00:01:30.302Z,8.40
2022-11-15T00:04:16.065Z,8.40
2022-11-15T00:07:01.768Z,8.40
2022-11-15T00:09:47.230Z,8.30
2022-11-15T00:12:32.636Z,8.30
2022-11-15T00:15:18.151Z,8.30
2022-11-15T00:18:05.343Z,8.30
2022-11-15T00:20:50.646Z,8.30
2022-11-15T00:23:36.391Z,8.30
2022-11-15T00:26:21.693Z,8.30
2022-11-15T00:29:07.458Z,8.30
2022-11-15T00:31:53.761Z,8.30
2022-11-15T00:34:39.077Z,8.30
2022-11-15T00:37:24.635Z,8.30
2022-11-15T00:40:11.111Z,8.30
2022-11-15T00:42:56.783Z,8.30
2022-11-15T00:45:41.961Z,8.30
2022-11-15T00:48:27.428Z,8.30
2022-11-15T00:51:12.865Z,8.30
2022-11-15T00:53:58.278Z,8.30
2022-11-15T00:56:43.921Z,8.30
2022-11-15T00:59:29.511Z,8.30
2022-11-15T01:02:15.026Z,8.30
2022-11-15T01:05:00.662Z,8.30
2022-11-15T01:07:46.640Z,8.30
2022-11-15T01:10:32.083Z,8.30
2022-11-15T01:13:17.597Z,8.30
2022-11-15T01:16:13.773Z,8.30
2022-11-15T01:18:59.112Z,8.30
2022-11-15T01:21:44.748Z,8.30
2022-11-15T01:24:30.380Z,8.30
2022-11-15T01:27:15.800Z,8.30
2022-11-15T01:30:01.175Z,8.30
2022-11-15T01:32:46.634Z,8.30
2022-11-15T01:35:32.244Z,8.30
2022-11-15T01:38:17.794Z,8.30
2022-11-15T01:41:03.750Z,8.30
2022-11-15T01:43:54.782Z,8.30
2022-11-15T01:46:41.977Z,8.30
2022-11-15T01:49:29.381Z,8.30
2022-11-15T01:52:19.175Z,8.30
2022-11-15T01:55:12.530Z,8.30
2022-11-15T01:58:02.482Z,8.30
2022-11-15T02:00:49.010Z,8.30
2022-11-15T02:03:47.559Z,8.20
2022-11-15T02:06:32.990Z,8.20
2022-11-15T02:09:19.381Z,8.20
2022-11-15T02:12:05.941Z,8.20
2022-11-15T02:14:55.771Z,8.20
2022-11-15T02:18:15.235Z,8.20
2022-11-15T02:21:33.426Z,8.10
2022-11-15T02:24:18.528Z,8.10
2022-11-15T02:27:04.000Z,8.10
2022-11-15T02:30:04.253Z,8.10
2022-11-15T02:33:12.454Z,8.20
2022-11-15T02:36:03.933Z,8.20
2022-11-15T02:38:52.413Z,8.20
2022-11-15T02:41:46.798Z,8.20
2022-11-15T02:44:38.253Z,8.20
2022-11-15T02:47:25.710Z,8.20
2022-11-15T02:50:19.568Z,8.20
2022-11-15T02:53:05.010Z,8.20
2022-11-15T02:55:52.430Z,8.20
2022-11-15T02:59:19.459Z,8.20
2022-11-15T03:02:31.945Z,8.20
2022-11-15T03:05:46.553Z,8.20
2022-11-15T03:08:46.485Z,8.20
2022-11-15T03:11:38.279Z,8.20
2022-11-15T03:14:59.061Z,8.20
2022-11-15T03:17:51.988Z,8.20
2022-11-15T03:20:38.382Z,8.20
2022-11-15T03:23:24.797Z,8.20
2022-11-15T03:26:13.673Z,8.20
2022-11-15T03:29:04.388Z,8.10
2022-11-15T03:31:52.319Z,8.20
2022-11-15T03:34:40.465Z,8.10
2022-11-15T03:37:35.295Z,8.20
2022-11-15T03:40:25.773Z,8.10
2022-11-15T03:43:11.431Z,8.20
2022-11-15T03:46:07.532Z,8.20
2022-11-15T03:48:58.672Z,8.10
2022-11-15T03:51:44.105Z,8.20
2022-11-15T03:54:29.796Z,8.10
2022-11-15T03:57:15.225Z,8.10
2022-11-15T04:00:00.688Z,8.20
2022-11-15T04:02:46.147Z,8.10
2022-11-15T04:05:31.615Z,8.10
2022-11-15T04:08:17.200Z,8.20
2022-11-15T04:11:02.756Z,8.20
2022-11-15T04:13:48.143Z,8.20
2022-11-15T04:16:33.602Z,8.20
2022-11-15T04:19:37.542Z,8.20
2022-11-15T04:22:41.405Z,8.20
2022-11-15T04:25:31.973Z,8.20
2022-11-15T04:28:18.385Z,8.20
2022-11-15T04:31:03.537Z,8.20
2022-11-15T04:33:49.250Z,8.20
2022-11-15T04:36:53.169Z,8.20
2022-11-15T04:39:39.226Z,8.20
2022-11-15T04:42:24.605Z,8.20
2022-11-15T04:45:10.687Z,8.20
2022-11-15T04:47:55.876Z,8.20
2022-11-15T04:50:41.452Z,8.20
2022-11-15T04:53:26.840Z,8.20
2022-11-15T04:56:13.307Z,8.20
2022-11-15T04:58:58.603Z,8.20
2022-11-15T05:01:45.212Z,8.10
2022-11-15T05:04:30.952Z,8.10
2022-11-15T05:07:16.533Z,8.10
2022-11-15T05:10:01.934Z,8.10
2022-11-15T05:12:47.922Z,8.10
2022-11-15T05:15:33.478Z,8.20
2022-11-15T05:18:23.347Z,8.20
2022-11-15T05:21:11.962Z,8.10
2022-11-15T05:23:57.217Z,8.10
2022-11-15T05:26:42.719Z,8.10
2022-11-15T05:29:28.282Z,8.10
2022-11-15T05:32:14.530Z,8.10
2022-11-15T05:35:00.123Z,8.10
2022-11-15T05:37:45.677Z,8.10
2022-11-15T05:40:32.199Z,8.10
2022-11-15T05:43:18.084Z,8.10
2022-11-15T05:46:05.465Z,8.10
2022-11-15T05:48:53.043Z,8.10
2022-11-15T05:51:39.194Z,8.10
2022-11-15T05:54:25.592Z,8.10
2022-11-15T05:57:11.117Z,8.10
2022-11-15T05:59:56.403Z,8.10
2022-11-15T06:02:41.935Z,8.10
2022-11-15T06:05:27.476Z,8.10
2022-11-15T06:08:12.921Z,8.10
2022-11-15T06:11:04.830Z,8.10
2022-11-15T06:13:50.402Z,8.10
2022-11-15T06:16:35.810Z,8.10
2022-11-15T06:19:21.403Z,8.10
2022-11-15T06:22:06.963Z,8.10
2022-11-15T06:24:52.478Z,8.10
2022-11-15T06:27:37.991Z,8.10
2022-11-15T06:30:24.353Z,8.00
2022-11-15T06:33:09.932Z,8.00
2022-11-15T06:35:55.481Z,8.00
2022-11-15T06:38:41.599Z,8.00
2022-11-15T06:41:27.088Z,8.00
2022-11-15T06:44:12.652Z,8.10
2022-11-15T06:46:57.879Z,8.10
2022-11-15T06:49:43.151Z,8.10
2022-11-15T06:52:33.436Z,8.10
2022-11-15T06:55:18.751Z,8.10
2022-11-15T06:58:04.341Z,8.10
2022-11-15T07:00:49.785Z,8.20
2022-11-15T07:03:37.356Z,8.20
2022-11-15T07:06:22.757Z,8.20
2022-11-15T07:09:08.227Z,8.20
2022-11-15T07:11:53.778Z,8.20
2022-11-15T07:14:39.194Z,8.10
2022-11-15T07:17:24.759Z,8.20
2022-11-15T07:20:10.663Z,8.10
2022-11-15T07:23:03.810Z,8.10
2022-11-15T07:25:48.968Z,8.10
2022-11-15T07:28:34.944Z,8.10
2022-11-15T07:31:20.330Z,8.10
2022-11-15T07:34:06.096Z,8.10
2022-11-15T07:36:51.754Z,8.10
2022-11-15T07:39:37.646Z,8.10
2022-11-15T07:42:41.632Z,8.10
2022-11-15T07:45:27.392Z,8.10
2022-11-15T07:48:13.102Z,8.10
2022-11-15T07:50:58.414Z,8.10
2022-11-15T07:53:44.363Z,8.00
2022-11-15T07:56:29.693Z,7.90
2022-11-15T07:59:14.959Z,7.90
2022-11-15T08:02:00.471Z,7.80
2022-11-15T08:04:45.999Z,7.80
2022-11-15T08:07:32.407Z,7.80
2022-11-15T08:10:20.101Z,7.80
2022-11-15T08:13:10.910Z,7.80
2022-11-15T08:16:03.953Z,7.80
2022-11-15T08:18:49.529Z,7.80
2022-11-15T08:21:36.163Z,7.70
2022-11-15T08:24:21.496Z,7.70
2022-11-15T08:27:15.958Z,7.60
2022-11-15T08:30:01.578Z,7.60
2022-11-15T08:32:47.175Z,7.50
2022-11-15T08:35:32.503Z,7.50
2022-11-15T08:38:18.164Z,7.60
2022-11-15T08:41:05.681Z,7.60
2022-11-15T08:43:51.095Z,7.60
2022-11-15T08:46:36.305Z,7.70
2022-11-15T08:49:21.779Z,7.70
2022-11-15T08:52:07.365Z,7.70
2022-11-15T08:54:52.867Z,7.80
2022-11-15T08:57:38.492Z,7.80
2022-11-15T09:00:24.232Z,7.80
2022-11-15T09:03:10.337Z,7.90
2022-11-15T09:05:57.188Z,7.90
2022-11-15T09:08:49.814Z,7.90
2022-11-15T09:11:35.439Z,7.80
2022-11-15T09:14:20.733Z,7.90
2022-11-15T09:17:09.790Z,7.80
2022-11-15T09:19:54.940Z,7.90
2022-11-15T09:22:40.487Z,7.90
2022-11-15T09:25:26.054Z,7.90
2022-11-15T09:28:11.447Z,7.90
2022-11-15T09:31:01.072Z,7.90
2022-11-15T09:33:50.868Z,7.90
2022-11-15T09:36:36.428Z,7.90
2022-11-15T09:39:21.761Z,7.90
2022-11-15T09:42:19.272Z,7.90
2022-11-15T09:46:07.204Z,7.90
2022-11-15T09:49:01.978Z,7.80
2022-11-15T09:52:04.652Z,7.90
2022-11-15T09:54:53.738Z,7.90
2022-11-15T09:57:23.837Z,7.90
2022-11-15T09:59:56.901Z,7.90
2022-11-15T10:02:51.675Z,7.90
2022-11-15T10:05:22.673Z,7.90
2022-11-15T10:08:27.757Z,8.00
2022-11-15T10:14:02.607Z,8.00
2022-11-15T10:16:36.624Z,8.00
2022-11-15T10:19:27.249Z,8.10
2022-11-15T10:22:18.045Z,8.10
2022-11-15T10:24:46.830Z,8.10
2022-11-15T10:27:17.646Z,8.20
2022-11-15T10:29:49.523Z,8.20
2022-11-15T10:32:18.875Z,8.30
2022-11-15T10:34:46.566Z,8.30
2022-11-15T10:37:13.463Z,8.40
2022-11-15T10:39:40.371Z,8.40
2022-11-15T10:42:18.260Z,8.50
2022-11-15T10:44:46.256Z,8.60
2022-11-15T10:47:26.621Z,8.50
2022-11-15T10:50:08.691Z,8.50
2022-11-15T10:52:37.259Z,8.50
2022-11-15T10:55:12.989Z,8.50
2022-11-15T10:57:40.884Z,8.50
2022-11-15T11:00:28.709Z,8.60
2022-11-15T11:03:08.264Z,8.60
2022-11-15T11:05:42.759Z,8.50
2022-11-15T11:08:13.018Z,8.50
2022-11-15T11:11:01.282Z,8.50
2022-11-15T11:13:33.774Z,8.50
2022-11-15T11:16:10.618Z,8.60
2022-11-15T11:19:07.182Z,8.60
2022-11-15T11:22:01.161Z,8.50
2022-11-15T11:24:44.122Z,8.60
2022-11-15T11:27:57.939Z,8.50
2022-11-15T11:30:57.048Z,8.50
2022-11-15T11:33:33.216Z,8.50
2022-11-15T11:36:08.309Z,8.50
2022-11-15T11:39:13.331Z,8.50
2022-11-15T11:41:58.596Z,8.50
2022-11-15T11:44:34.537Z,8.50
2022-11-15T11:47:02.783Z,8.50
2022-11-15T11:49:40.495Z,8.60
2022-11-15T11:52:21.749Z,8.50
2022-11-15T11:54:48.543Z,8.50
2022-11-15T11:57:45.057Z,8.50
2022-11-15T12:00:21.123Z,8.50
2022-11-15T12:03:37.590Z,8.50
2022-11-15T12:06:30.417Z,8.40
2022-11-15T12:09:18.469Z,8.40
2022-11-15T12:12:19.437Z,8.30
2022-11-15T12:14:54.924Z,8.30
2022-11-15T12:17:27.422Z,8.20
2022-11-15T12:19:58.497Z,8.20
2022-11-15T12:22:44.459Z,8.10
2022-11-15T12:25:25.561Z,8.10
2022-11-15T12:28:02.722Z,8.10
2022-11-15T12:31:01.722Z,8.00
2022-11-15T12:34:01.764Z,8.00
2022-11-15T12:36:45.241Z,8.00
2022-11-15T12:39:13.818Z,8.00
2022-11-15T12:42:05.358Z,8.00
2022-11-15T12:44:32.211Z,8.00
2022-11-15T12:46:59.009Z,8.00
2022-11-15T12:49:28.946Z,8.00
2022-11-15T12:51:58.779Z,8.00
2022-11-15T12:54:25.609Z,8.00
2022-11-15T12:57:15.677Z,8.00
2022-11-15T13:00:02.678Z,8.00
2022-11-15T13:02:35.528Z,8.00
2022-11-15T13:05:19.290Z,7.90
2022-11-15T13:07:46.099Z,7.90
2022-11-15T13:10:30.929Z,7.90
2022-11-15T13:13:10.418Z,7.90
2022-11-15T13:15:45.678Z,7.80
2022-11-15T13:18:24.757Z,7.80
2022-11-15T13:20:51.629Z,7.80
2022-11-15T13:23:18.618Z,7.80
2022-11-15T13:26:17.579Z,7.70
2022-11-15T13:28:52.782Z,7.70
2022-11-15T13:31:38.698Z,7.70
2022-11-15T13:34:50.063Z,7.70
2022-11-15T13:37:21.324Z,7.60
2022-11-15T13:39:49.881Z,7.50
2022-11-15T13:42:21.387Z,7.50
2022-11-15T13:45:02.433Z,7.50
2022-11-15T13:47:30.972Z,7.40
2022-11-15T13:50:09.698Z,7.40
2022-11-15T13:52:44.055Z,7.30
2022-11-15T13:55:14.249Z,7.30
2022-11-15T13:57:52.248Z,7.30
2022-11-15T14:00:27.766Z,7.30
2022-11-15T14:02:56.381Z,7.20
2022-11-15T14:05:25.698Z,7.20
2022-11-15T14:08:02.415Z,7.30
2022-11-15T14:10:38.385Z,7.20
2022-11-15T14:13:11.883Z,7.30
2022-11-15T14:15:40.288Z,7.20
2022-11-15T14:18:07.349Z,7.20
2022-11-15T14:20:39.681Z,7.20
2022-11-15T14:23:19.706Z,7.20
2022-11-15T14:25:58.090Z,7.20
2022-11-15T14:28:24.891Z,7.20
2022-11-15T14:30:54.400Z,7.20
2022-11-15T14:33:26.240Z,7.20
2022-11-15T14:35:53.772Z,7.20
2022-11-15T14:38:20.666Z,7.20
2022-11-15T14:40:47.774Z,7.10
2022-11-15T14:43:15.272Z,7.10
2022-11-15T14:45:42.506Z,7.10
2022-11-15T14:48:09.510Z,7.00
2022-11-15T14:50:36.986Z,7.00
2022-11-15T14:53:04.830Z,7.00
2022-11-15T14:55:36.099Z,7.00
2022-11-15T14:58:10.935Z,7.00
2022-11-15T15:00:39.572Z,7.00
2022-11-15T15:03:07.134Z,7.00
2022-11-15T15:05:40.042Z,7.00
2022-11-15T15:08:07.703Z,7.00
2022-11-15T15:10:45.641Z,7.00
2022-11-15T15:13:24.054Z,6.90
2022-11-15T15:15:52.635Z,6.90
2022-11-15T15:18:21.003Z,6.90
2022-11-15T15:21:00.864Z,6.90
2022-11-15T15:23:30.229Z,6.90
2022-11-15T15:25:57.512Z,6.80
2022-11-15T15:28:24.408Z,6.80
2022-11-15T15:30:51.258Z,6.90
2022-11-15T15:33:18.083Z,6.90
2022-11-15T15:35:45.265Z,6.90
2022-11-15T15:38:13.333Z,6.80
2022-11-15T15:40:40.397Z,6.90
2022-11-15T15:43:09.923Z,6.90
2022-11-15T15:45:41.755Z,6.90
2022-11-15T15:48:18.181Z,6.90
2022-11-15T15:50:45.166Z,6.90
2022-11-15T15:53:13.670Z,6.90
2022-11-15T15:55:40.883Z,6.80
2022-11-15T15:58:09.121Z,6.80
2022-11-15T16:00:36.768Z,6.90
2022-11-15T16:03:04.808Z,6.80
2022-11-15T16:05:31.852Z,6.80
2022-11-15T16:07:58.772Z,6.90
2022-11-15T16:10:28.032Z,6.80
2022-11-15T16:12:56.405Z,6.80
2022-11-15T16:15:25.186Z,6.80
2022-11-15T16:17:54.219Z,6.80
2022-11-15T16:20:34.914Z,6.90
2022-11-15T16:23:08.724Z,6.80
2022-11-15T16:25:49.564Z,6.80
2022-11-15T16:28:21.755Z,6.80
2022-11-15T16:30:53.883Z,6.80
2022-11-15T16:33:23.808Z,6.80
2022-11-15T16:35:50.784Z,6.80
2022-11-15T16:38:18.996Z,6.80
2022-11-15T16:40:46.019Z,6.80
2022-11-15T16:43:12.968Z,6.70
2022-11-15T16:45:40.121Z,6.80
2022-11-15T16:48:07.351Z,6.70
2022-11-15T16:50:41.457Z,6.70
2022-11-15T16:53:08.368Z,6.80
2022-11-15T16:55:35.353Z,6.70
2022-11-15T16:58:02.464Z,6.70
2022-11-15T17:00:29.493Z,6.70
2022-11-15T17:02:57.753Z,6.70
2022-11-15T17:05:27.360Z,6.70
2022-11-15T17:07:54.363Z,6.70
2022-11-15T17:10:22.636Z,6.70
2022-11-15T17:12:50.338Z,6.70
2022-11-15T17:15:17.686Z,6.70
2022-11-15T17:17:45.486Z,6.60
2022-11-15T17:20:17.207Z,6.60
2022-11-15T17:22:44.284Z,6.60
2022-11-15T17:25:11.445Z,6.60
2022-11-15T17:27:38.337Z,6.70
2022-11-15T17:30:05.941Z,6.60
2022-11-15T17:32:32.877Z,6.60
2022-11-15T17:34:59.787Z,6.60
2022-11-15T17:37:26.631Z,6.60
2022-11-15T17:39:53.506Z,6.60
2022-11-15T17:42:20.447Z,6.60
2022-11-15T17:44:47.269Z,6.60
2022-11-15T17:47:14.129Z,6.50
2022-11-15T17:49:41.142Z,6.50
2022-11-15T17:52:08.363Z,6.50
2022-11-15T17:54:35.270Z,6.50
2022-11-15T17:57:02.151Z,6.50
2022-11-15T17:59:29.038Z,6.50
2022-11-15T18:01:55.955Z,6.50
2022-11-15T18:04:28.173Z,6.60
2022-11-15T18:06:56.456Z,6.60
2022-11-15T18:09:24.774Z,6.60
2022-11-15T18:11:54.512Z,6.60
2022-11-15T18:14:21.491Z,6.60
2022-11-15T18:16:48.672Z,6.60
2022-11-15T18:19:15.563Z,6.60
2022-11-15T18:21:57.114Z,6.60
2022-11-15T18:24:29.178Z,6.60
2022-11-15T18:26:57.009Z,6.60
2022-11-15T18:29:24.845Z,6.60
2022-11-15T18:31:55.712Z,6.60
2022-11-15T18:34:24.189Z,6.60
2022-11-15T18:36:52.808Z,6.60
2022-11-15T18:39:20.159Z,6.70
2022-11-15T18:41:47.378Z,6.70
2022-11-15T18:44:14.683Z,6.70
2022-11-15T18:46:42.312Z,6.70
2022-11-15T18:49:10.746Z,6.70
2022-11-15T18:51:37.999Z,6.70
2022-11-15T18:54:05.188Z,6.70
2022-11-15T18:56:33.024Z,6.70
2022-11-15T18:59:02.191Z,6.70
2022-11-15T19:01:40.674Z,6.70
2022-11-15T19:04:12.218Z,6.70
2022-11-15T19:06:43.778Z,6.60
2022-11-15T19:09:12.268Z,6.60
2022-11-15T19:11:40.036Z,6.60
2022-11-15T19:14:09.391Z,6.60
2022-11-15T19:16:39.252Z,6.70
2022-11-15T19:19:13.900Z,6.70
2022-11-15T19:21:41.058Z,6.70
2022-11-15T19:24:08.200Z,6.70
2022-11-15T19:26:37.778Z,6.70
2022-11-15T19:29:06.009Z,6.70
2022-11-15T19:31:33.657Z,6.70
2022-11-15T19:34:04.295Z,6.70
2022-11-15T19:36:36.661Z,6.70
2022-11-15T19:39:08.347Z,6.70
2022-11-15T19:41:37.838Z,6.70
2022-11-15T19:44:05.867Z,6.70
2022-11-15T19:46:32.781Z,6.70
2022-11-15T19:48:59.756Z,6.70
2022-11-15T19:51:30.209Z,6.70
2022-11-15T19:53:59.557Z,6.70
2022-11-15T19:56:26.447Z,6.70
2022-11-15T19:58:55.383Z,6.70
2022-11-15T20:01:24.861Z,6.70
2022-11-15T20:03:54.706Z,6.70
2022-11-15T20:06:33.733Z,6.70
2022-11-15T20:09:00.851Z,6.60
2022-11-15T20:11:27.928Z,6.60
2022-11-15T20:14:04.973Z,6.70
2022-11-15T20:16:31.984Z,6.70
2022-11-15T20:18:59.043Z,6.70
2022-11-15T20:21:25.883Z,6.70
2022-11-15T20:23:52.740Z,6.70
2022-11-15T20:26:20.599Z,6.60
2022-11-15T20:28:48.473Z,6.70
2022-11-15T20:31:16.297Z,6.60
2022-11-15T20:33:44.429Z,6.70
2022-11-15T20:36:13.842Z,6.70
2022-11-15T20:38:40.791Z,6.70
2022-11-15T20:41:07.841Z,6.60
2022-11-15T20:43:34.693Z,6.70
2022-11-15T20:46:01.661Z,6.70
2022-11-15T20:48:28.682Z,6.70
2022-11-15T20:51:16.309Z,6.60
2022-11-15T20:53:45.034Z,6.70
2022-11-15T20:56:14.760Z,6.60
2022-11-15T20:58:43.004Z,6.60
2022-11-15T21:01:13.801Z,6.60
2022-11-15T21:03:41.040Z,6.60
2022-11-15T21:06:08.252Z,6.60
2022-11-15T21:08:54.089Z,6.60
2022-11-15T21:11:39.652Z,6.60
2022-11-15T21:14:09.542Z,6.60
2022-11-15T21:16:37.555Z,6.60
2022-11-15T21:19:05.942Z,6.60
2022-11-15T21:21:33.334Z,6.60
2022-11-15T21:24:02.196Z,6.60
2022-11-15T21:26:29.086Z,6.60
2022-11-15T21:28:55.953Z,6.60
2022-11-15T21:31:23.175Z,6.60
2022-11-15T21:33:50.009Z,6.60
2022-11-15T21:36:16.916Z,6.60
2022-11-15T21:38:43.739Z,6.60
2022-11-15T21:41:10.580Z,6.60
2022-11-15T21:43:37.385Z,6.60
2022-11-15T21:46:06.455Z,6.60
2022-11-15T21:48:35.433Z,6.60
2022-11-15T21:51:06.213Z,6.60
2022-11-15T21:53:33.740Z,6.60
2022-11-15T21:56:01.793Z,6.60
2022-11-15T21:58:29.361Z,6.60
2022-11-15T22:01:16.143Z,6.60
2022-11-15T22:03:43.646Z,6.50
2022-11-15T22:06:17.279Z,6.60
2022-11-15T22:08:45.497Z,6.60
2022-11-15T22:11:12.519Z,6.60
2022-11-15T22:13:39.379Z,6.60
2022-11-15T22:16:07.292Z,6.60
2022-11-15T22:18:34.677Z,6.60
2022-11-15T22:21:03.153Z,6.60
2022-11-15T22:23:31.519Z,6.50
2022-11-15T22:25:59.045Z,6.60
2022-11-15T22:28:26.114Z,6.50
2022-11-15T22:30:54.406Z,6.60
2022-11-15T22:33:23.684Z,6.60
2022-11-15T22:35:50.862Z,6.60
2022-11-15T22:38:18.036Z,6.50
2022-11-15T22:40:46.546Z,6.50
2022-11-15T22:43:16.073Z,6.50
2022-11-15T22:45:51.862Z,6.50
2022-11-15T22:48:21.179Z,6.50
2022-11-15T22:50:48.423Z,6.50
2022-11-15T22:53:15.344Z,6.50
2022-11-15T22:55:42.302Z,6.60
2022-11-15T22:58:09.471Z,6.60
2022-11-15T23:00:36.969Z,6.50
2022-11-15T23:03:04.290Z,6.50
2022-11-15T23:05:32.002Z,6.60
2022-11-15T23:07:58.864Z,6.60
2022-11-15T23:10:44.163Z,6.60
2022-11-15T23:13:16.118Z,6.60
2022-11-15T23:16:05.064Z,6.60
2022-11-15T23:18:41.717Z,6.60
2022-11-15T23:21:37.453Z,6.50
2022-11-15T23:24:05.418Z,6.50
2022-11-15T23:26:32.915Z,6.50
2022-11-15T23:28:59.885Z,6.50
2022-11-15T23:32:01.140Z,6.50
2022-11-15T23:34:35.096Z,6.50
2022-11-15T23:37:02.027Z,6.50
2022-11-15T23:39:29.004Z,6.50
2022-11-15T23:41:56.575Z,6.50
2022-11-15T23:44:24.250Z,6.50
2022-11-15T23:46:51.323Z,6.50
2022-11-15T23:49:18.222Z,6.50
2022-11-15T23:51:45.102Z,6.50
2022-11-15T23:54:12.458Z,6.50
2022-11-15T23:56:39.747Z,6.50
2022-11-15T23:59:06.780Z,6.50
